Time;durP1;ratioP1;P1;durP2;ratioP2;P2;SDS_P1;SDS_P2;PMS_P1;PMS_P2;Temp;Humidity;BMP_temperature;BMP_pressure;BME280_temperature;BME280_humidity;BME280_pressure;Samples;Min_cycle;Max_cycle;Signal;HPM_P1;HPM_P2
2022/06/02 00:02:09;;;;;;;1.45;1.27;;;;;;;19.80;51.18;101922.88;5126106;27;20106;-58
2022/06/02 00:05:03;;;;;;;1.40;1.30;;;;;;;19.80;51.42;101917.50;5091157;28;20586;-59
2022/06/02 00:07:35;;;;;;;1.38;1.27;;;;;;;19.80;51.07;101919.34;5092616;28;20096;-59
2022/06/02 00:10:25;;;;;;;2.03;1.83;;;;;;;19.80;51.17;101924.75;5104101;28;20036;-59
2022/06/02 00:13:04;;;;;;;1.42;1.20;;;;;;;19.79;50.92;101929.25;5085369;28;20035;-59
2022/06/02 00:15:42;;;;;;;1.30;1.17;;;;;;;19.80;51.26;101924.75;5085799;28;20020;-59
2022/06/02 00:18:21;;;;;;;1.98;1.40;;;;;;;19.78;50.96;101927.56;5085546;28;20020;-59
2022/06/02 00:21:08;;;;;;;0.80;0.80;;;;;;;19.71;50.71;101916.53;5110747;28;20034;-58
2022/06/02 00:23:57;;;;;;;1.23;0.80;;;;;;;19.78;50.41;101927.56;5097968;28;20024;-59
2022/06/02 00:26:39;;;;;;;0.80;0.80;;;;;;;19.76;50.68;101915.25;5085604;28;20024;-59
2022/06/02 00:29:13;;;;;;;1.08;0.90;;;;;;;19.78;50.24;101929.41;5094924;28;20019;-59
2022/06/02 00:32:04;;;;;;;0.85;0.80;;;;;;;19.78;50.09;101932.97;5109909;28;20015;-59
2022/06/02 00:34:59;;;;;;;1.10;1.00;;;;;;;19.79;50.33;101936.50;5089520;28;20096;-59
2022/06/02 00:37:30;;;;;;;0.70;0.70;;;;;;;19.79;49.89;101942.75;5103862;28;20030;-59
2022/06/02 00:39:57;;;;;;;0.70;0.70;;;;;;;19.72;49.85;101929.03;5132422;27;20047;-58
2022/06/02 00:42:25;;;;;;;0.60;0.60;;;;;;;19.78;50.25;101943.75;5105941;28;20027;-58
2022/06/02 00:45:05;;;;;;;1.30;0.60;;;;;;;19.77;50.05;101939.38;5113262;28;20035;-58
2022/06/02 00:47:39;;;;;;;0.60;0.60;;;;;;;19.77;49.98;101938.53;5142398;27;20108;-59
2022/06/02 00:50:23;;;;;;;1.15;0.70;;;;;;;19.78;49.47;101945.63;5120574;28;20024;-59
2022/06/02 00:53:03;;;;;;;0.68;0.68;;;;;;;19.77;49.85;101950.16;5124822;28;20020;-59
2022/06/02 00:58:53;;;;;;;0.50;0.50;;;;;;;19.77;49.25;101947.47;5103132;28;20053;-59
2022/06/02 01:01:25;;;;;;;0.65;0.65;;;;;;;19.75;49.34;101948.59;5096159;28;20041;-58
2022/06/02 01:03:54;;;;;;;0.60;0.60;;;;;;;19.75;48.88;101954.84;5111484;28;20016;-59
2022/06/02 01:06:19;;;;;;;0.70;0.70;;;;;;;19.75;49.08;101954.00;5126790;28;20023;-59
2022/06/02 01:09:12;;;;;;;0.60;0.60;;;;;;;19.77;49.06;101954.72;5120526;28;20088;-58
2022/06/02 01:11:46;;;;;;;0.65;0.65;;;;;;;19.75;48.63;101951.31;5120771;28;20035;-58
2022/06/02 01:14:38;;;;;;;0.60;0.60;;;;;;;19.74;48.75;101947.75;5099026;28;20043;-59
2022/06/02 01:17:23;;;;;;;1.23;0.60;;;;;;;19.74;48.57;101958.56;5118747;28;20103;-58
2022/06/02 01:20:06;;;;;;;0.60;0.60;;;;;;;19.72;48.27;101955.16;5120587;28;20025;-58
2022/06/02 01:22:44;;;;;;;0.70;0.70;;;;;;;19.73;48.43;101954.16;5110052;28;20051;-59
2022/06/02 01:25:28;;;;;;;0.90;0.80;;;;;;;19.72;48.52;101964.09;5129411;28;20024;-58
2022/06/02 01:28:17;;;;;;;0.50;0.50;;;;;;;19.72;48.25;101961.41;5116628;28;20016;-58
2022/06/02 01:30:55;;;;;;;0.85;0.60;;;;;;;19.72;48.45;101960.56;5091994;28;20091;-58
2022/06/02 01:33:47;;;;;;;0.60;0.60;;;;;;;19.71;48.20;101965.13;5109156;28;20073;-59
2022/06/02 01:36:19;;;;;;;0.60;0.60;;;;;;;19.72;48.08;101968.66;5109872;28;20153;-59
2022/06/02 01:38:54;;;;;;;0.70;0.63;;;;;;;19.70;48.22;101959.84;5110556;28;20036;-58
2022/06/02 01:41:53;;;;;;;0.50;0.50;;;;;;;19.70;47.84;101959.84;5122019;28;20028;-59
2022/06/02 01:44:33;;;;;;;0.77;0.77;;;;;;;19.71;48.08;101961.56;5105549;28;20028;-59
2022/06/02 01:47:07;;;;;;;0.60;0.60;;;;;;;19.68;47.79;101959.16;5123149;28;20049;-59
2022/06/02 01:50:12;;;;;;;0.50;0.50;;;;;;;19.70;47.97;101951.75;5115073;28;20031;-59
2022/06/02 01:52:44;;;;;;;0.55;0.55;;;;;;;19.67;47.89;101952.91;5115807;28;20031;-59
2022/06/02 01:55:20;;;;;;;0.50;0.50;;;;;;;19.67;48.12;101952.06;5120146;28;20484;-56
2022/06/02 01:58:07;;;;;;;0.50;0.50;;;;;;;19.67;47.85;101957.47;5120993;28;20024;-58
2022/06/02 02:00:34;;;;;;;0.60;0.60;;;;;;;19.66;47.46;101959.28;5119028;28;20019;-58
2022/06/02 02:03:18;;;;;;;0.40;0.40;;;;;;;19.66;47.79;101950.34;5097081;28;20054;-58
2022/06/02 02:06:16;;;;;;;0.52;0.50;;;;;;;19.65;47.51;101965.69;5113629;28;20031;-57
2022/06/02 02:09:04;;;;;;;0.50;0.50;;;;;;;19.65;47.74;101963.00;5098217;28;20083;-59
2022/06/02 02:11:50;;;;;;;0.52;0.52;;;;;;;19.64;47.55;101964.00;5109516;28;20016;-59
2022/06/02 02:14:27;;;;;;;0.73;0.60;;;;;;;19.63;47.59;101961.47;5100942;28;20019;-59
2022/06/02 02:17:27;;;;;;;0.50;0.50;;;;;;;19.63;47.37;101965.00;5114342;28;20035;-59
2022/06/02 02:20:06;;;;;;;0.50;0.50;;;;;;;19.61;47.31;101961.59;5120478;28;20045;-58
2022/06/02 02:22:41;;;;;;;0.40;0.40;;;;;;;19.62;47.40;101965.97;5096776;28;20028;-58
2022/06/02 02:25:14;;;;;;;0.60;0.60;;;;;;;19.61;47.21;101958.88;5102149;28;20020;-59
2022/06/02 02:30:31;;;;;;;0.40;0.40;;;;;;;19.60;47.54;101964.41;5105781;28;20054;-59
2022/06/02 02:33:12;;;;;;;0.60;0.50;;;;;;;19.60;47.41;101957.16;5087745;28;20034;-59
2022/06/02 02:36:06;;;;;;;0.40;0.40;;;;;;;19.60;47.28;101954.47;5087481;28;20027;-59
2022/06/02 02:38:48;;;;;;;0.60;0.60;;;;;;;19.59;47.25;101960.00;5087853;28;20027;-58
2022/06/02 02:41:24;;;;;;;0.40;0.40;;;;;;;19.59;47.25;101960.00;5105758;28;20040;-59
2022/06/02 02:44:13;;;;;;;0.47;0.47;;;;;;;19.58;46.88;101961.00;5087404;28;20473;-59
2022/06/02 02:46:52;;;;;;;0.47;0.47;;;;;;;19.58;46.93;101966.38;5109804;28;20039;-59
2022/06/02 02:49:31;;;;;;;0.50;0.50;;;;;;;19.57;46.87;101957.44;5086579;28;20051;-59
2022/06/02 02:52:05;;;;;;;0.60;0.60;;;;;;;19.55;47.25;101962.16;5093216;28;20015;-59
2022/06/02 02:55:01;;;;;;;0.65;0.60;;;;;;;19.57;46.92;101962.00;5107796;28;20055;-59
2022/06/02 02:57:42;;;;;;;0.60;0.60;;;;;;;19.55;47.18;101972.94;5119725;28;20020;-59
2022/06/02 03:00:09;;;;;;;0.60;0.60;;;;;;;19.54;47.03;101967.69;5086884;28;20058;-59
2022/06/02 03:03:05;;;;;;;0.68;0.50;;;;;;;19.54;46.95;101976.66;5087406;28;20020;-57
2022/06/02 03:05:56;;;;;;;0.50;0.50;;;;;;;19.54;47.14;101970.38;5105067;28;20020;-59
2022/06/02 03:08:42;;;;;;;0.60;0.60;;;;;;;19.53;47.08;101971.38;5119017;28;20044;-58
2022/06/02 03:11:17;;;;;;;0.95;0.63;;;;;;;19.51;46.72;101971.53;5116673;28;20036;-58
2022/06/02 03:13:54;;;;;;;0.40;0.40;;;;;;;19.52;46.75;101973.22;5098853;28;20033;-59
2022/06/02 03:16:21;;;;;;;0.60;0.60;;;;;;;19.50;46.80;101983.34;5099106;28;20030;-59
2022/06/02 03:19:02;;;;;;;0.50;0.50;;;;;;;19.51;46.56;101982.31;5092308;28;20023;-59
2022/06/02 03:21:36;;;;;;;0.40;0.40;;;;;;;19.51;46.85;101976.09;5087000;28;20564;-58
2022/06/02 03:24:20;;;;;;;0.50;0.50;;;;;;;19.50;46.86;101980.63;5092757;28;20056;-58
2022/06/02 03:27:10;;;;;;;0.73;0.70;;;;;;;19.50;46.56;101988.72;5124972;28;20030;-58
2022/06/02 03:30:00;;;;;;;1.10;0.50;;;;;;;19.49;46.75;101987.84;5113815;28;20016;-59
2022/06/02 03:32:38;;;;;;;0.47;0.40;;;;;;;19.48;46.86;101988.00;5092550;28;20012;-59
2022/06/02 03:35:20;;;;;;;0.40;0.40;;;;;;;19.47;46.68;101994.41;5111974;28;20050;-58
2022/06/02 03:38:04;;;;;;;0.60;0.60;;;;;;;19.47;46.85;101995.25;5111438;28;20023;-59
2022/06/02 03:41:00;;;;;;;0.43;0.43;;;;;;;19.47;46.69;101991.69;5110525;28;20044;-59
2022/06/02 03:43:58;;;;;;;1.05;0.60;;;;;;;19.46;46.87;101987.31;5112558;28;20052;-58
2022/06/02 03:46:59;;;;;;;0.47;0.47;;;;;;;19.45;46.74;102001.78;5076164;28;20126;-59
2022/06/02 03:49:43;;;;;;;0.40;0.40;;;;;;;19.42;46.44;101999.38;5036225;28;20295;-59
2022/06/02 03:52:42;;;;;;;0.50;0.50;;;;;;;19.44;46.53;102009.03;5034526;28;20494;-57
2022/06/02 03:55:25;;;;;;;0.50;0.50;;;;;;;19.43;46.81;102012.72;5030818;28;20033;-58
2022/06/02 03:58:35;;;;;;;0.40;0.40;;;;;;;19.43;46.55;102011.88;5022293;28;20037;-59
2022/06/02 04:01:03;;;;;;;0.50;0.50;;;;;;;19.42;46.55;102015.56;5034134;28;20619;-58
2022/06/02 04:03:31;;;;;;;0.50;0.50;;;;;;;19.41;46.55;102014.72;5032337;28;20026;-58
2022/06/02 04:06:02;;;;;;;0.30;0.30;;;;;;;19.40;46.56;102013.00;5035591;28;20038;-58
2022/06/02 04:08:49;;;;;;;0.40;0.40;;;;;;;19.41;46.59;102025.50;5036045;28;20109;-57
2022/06/02 04:13:37;;;;;;;0.40;0.40;;;;;;;19.40;46.95;102021.09;5032960;28;20035;-58
2022/06/02 04:14:40;;;;;;;0.50;0.50;;;;;;;19.41;47.03;102030.03;5021057;28;20036;-58
2022/06/02 04:17:26;;;;;;;0.50;0.50;;;;;;;19.37;46.57;102020.53;5030000;28;20029;-57
2022/06/02 04:23:02;;;;;;;2.15;0.40;;;;;;;19.41;46.92;102032.72;5030625;28;20122;-54
2022/06/02 04:25:36;;;;;;;1.63;0.50;;;;;;;19.40;46.91;102036.44;5064459;28;20488;-56
2022/06/02 04:28:10;;;;;;;1.77;0.60;;;;;;;19.40;46.78;102048.06;5110963;28;20056;-54
2022/06/02 04:30:44;;;;;;;0.50;0.50;;;;;;;19.40;46.72;102047.22;5107389;28;20083;-55
2022/06/02 04:33:16;;;;;;;0.50;0.50;;;;;;;19.40;46.71;102049.91;5089454;28;20076;-56
2022/06/02 04:35:51;;;;;;;0.40;0.40;;;;;;;19.39;46.85;102046.38;5091437;28;20030;-56
2022/06/02 04:38:54;;;;;;;0.57;0.57;;;;;;;19.39;46.92;102051.75;5094412;28;20020;-54
2022/06/02 04:41:31;;;;;;;0.40;0.40;;;;;;;19.40;46.97;102060.69;5084466;28;20040;-54
2022/06/02 04:43:59;;;;;;;1.85;0.60;;;;;;;19.39;47.29;102061.69;5104127;28;20070;-58
2022/06/02 04:46:31;;;;;;;0.77;0.60;;;;;;;19.40;47.69;102063.41;5107925;28;20024;-57
2022/06/02 04:49:08;;;;;;;0.50;0.50;;;;;;;19.40;47.44;102066.94;5087239;28;20051;-58
2022/06/02 04:51:42;;;;;;;0.40;0.40;;;;;;;19.40;47.53;102058.00;5088731;28;20036;-58
2022/06/02 04:54:26;;;;;;;1.90;0.52;;;;;;;19.40;47.74;102064.25;5088952;28;20496;-58
2022/06/02 04:57:16;;;;;;;0.40;0.40;;;;;;;19.39;47.41;102059.84;5086122;28;20023;-59
2022/06/02 05:00:09;;;;;;;1.80;0.70;;;;;;;19.39;47.44;102070.63;5073032;28;20036;-58
2022/06/02 05:02:44;;;;;;;0.60;0.60;;;;;;;19.39;47.95;102073.34;5072261;28;20096;-57
2022/06/02 05:05:27;;;;;;;0.65;0.65;;;;;;;19.38;47.50;102068.94;5104427;28;20089;-58
2022/06/02 05:08:04;;;;;;;0.57;0.57;;;;;;;19.38;48.28;102068.09;5107383;28;20118;-58
2022/06/02 05:10:49;;;;;;;1.00;0.80;;;;;;;19.38;48.07;102078.88;5105081;28;20016;-58
2022/06/02 05:13:30;;;;;;;0.70;0.70;;;;;;;19.37;48.52;102074.47;5093511;28;20016;-58
2022/06/02 05:16:14;;;;;;;0.80;0.70;;;;;;;19.37;48.20;102077.16;5105729;28;20035;-58
2022/06/02 05:18:43;;;;;;;0.73;0.70;;;;;;;19.37;48.71;102087.94;5098678;28;20018;-58
2022/06/02 05:21:43;;;;;;;1.13;1.02;;;;;;;19.35;48.75;102081.84;5108675;28;20031;-57
2022/06/02 05:24:26;;;;;;;1.20;1.00;;;;;;;19.35;48.63;102088.09;5108404;28;20032;-58
2022/06/02 05:27:03;;;;;;;1.35;1.10;;;;;;;19.35;48.76;102082.72;5109657;28;20272;-58
2022/06/02 05:29:53;;;;;;;1.05;0.90;;;;;;;19.35;48.86;102082.72;5088750;28;20026;-58
2022/06/02 05:32:34;;;;;;;1.33;1.08;;;;;;;19.36;49.05;102091.66;5103119;28;20020;-58
2022/06/02 05:35:17;;;;;;;1.92;1.50;;;;;;;19.36;49.42;102092.50;5092488;28;20028;-58
2022/06/02 05:37:46;;;;;;;3.08;1.60;;;;;;;19.35;49.29;102095.34;5090535;28;20231;-58
2022/06/02 05:40:35;;;;;;;1.92;1.50;;;;;;;19.34;49.37;102089.09;5090191;28;20052;-58
2022/06/02 05:43:04;;;;;;;1.30;1.17;;;;;;;19.34;49.16;102101.75;5112697;28;20024;-49
2022/06/02 05:45:36;;;;;;;1.65;1.55;;;;;;;19.33;49.39;102100.03;5089368;28;20027;-48
2022/06/02 05:48:09;;;;;;;1.55;1.45;;;;;;;19.32;49.79;102107.25;5110071;28;20024;-52
2022/06/02 05:51:05;;;;;;;1.98;1.63;;;;;;;19.34;49.78;102107.13;5108740;28;20026;-49
2022/06/02 05:53:38;;;;;;;1.85;1.50;;;;;;;19.33;49.47;102105.44;5106876;28;20027;-53
2022/06/02 05:56:06;;;;;;;1.70;1.60;;;;;;;19.32;49.60;102103.72;5093152;28;20052;-53
2022/06/02 05:58:50;;;;;;;2.08;1.00;;;;;;;19.32;49.78;102115.34;5091222;28;20115;-52
2022/06/02 06:01:47;;;;;;;1.80;1.30;;;;;;;19.33;49.56;102116.22;5106371;28;20083;-58
2022/06/02 06:04:21;;;;;;;1.50;1.23;;;;;;;19.33;49.86;102108.13;5108498;28;20032;-57
2022/06/02 06:06:55;;;;;;;2.85;1.40;;;;;;;19.30;49.56;102106.56;5112490;27;20032;-54
2022/06/02 06:09:36;;;;;;;1.52;1.10;;;;;;;19.32;49.72;102112.66;5092156;28;20182;-54
2022/06/02 06:12:01;;;;;;;1.40;1.10;;;;;;;19.32;49.75;102119.88;5108892;28;20502;-52
2022/06/02 06:14:33;;;;;;;1.08;1.00;;;;;;;19.32;49.65;102126.13;5096086;28;20027;-55
2022/06/02 06:17:08;;;;;;;1.88;1.30;;;;;;;19.33;49.43;102127.84;5114143;28;20042;-56
2022/06/02 06:19:48;;;;;;;1.15;1.05;;;;;;;19.34;49.41;102120.63;5101568;28;20030;-52
2022/06/02 06:22:35;;;;;;;1.08;0.90;;;;;;;19.33;49.49;102118.91;5107994;27;20028;-49
2022/06/02 06:25:26;;;;;;;1.10;1.00;;;;;;;19.33;49.25;102114.38;5105779;28;20028;-56
2022/06/02 06:27:55;;;;;;;3.20;1.27;;;;;;;19.35;49.15;102111.53;5091249;28;20052;-55
2022/06/02 06:30:43;;;;;;;1.20;1.05;;;;;;;19.36;48.63;102105.97;5109847;28;20031;-51
2022/06/02 06:33:14;;;;;;;1.30;1.20;;;;;;;19.36;48.63;102124.00;5088651;28;20084;-53
2022/06/02 06:35:58;;;;;;;1.40;1.30;;;;;;;19.37;48.45;102114.91;5107497;28;20066;-53
2022/06/02 06:39:08;;;;;;;1.90;1.40;;;;;;;19.37;48.52;102114.91;5110998;28;20076;-53
2022/06/02 06:42:04;;;;;;;1.70;1.23;;;;;;;19.38;48.45;102122.03;5078758;28;20048;-57
2022/06/02 06:44:46;;;;;;;1.58;1.33;;;;;;;19.36;48.28;102113.22;5110661;28;20032;-57
2022/06/02 06:47:22;;;;;;;2.20;1.38;;;;;;;19.37;48.52;102123.00;5111190;28;20027;-57
2022/06/02 06:50:25;;;;;;;2.38;1.20;;;;;;;19.37;48.56;102126.59;5110575;28;20030;-54
2022/06/02 06:53:05;;;;;;;1.55;1.17;;;;;;;19.36;48.36;102130.25;5092733;28;20119;-56
2022/06/02 06:55:57;;;;;;;2.55;1.30;;;;;;;19.38;48.53;102128.28;5111203;28;20038;-55
2022/06/02 06:58:51;;;;;;;1.55;1.25;;;;;;;19.37;48.45;102129.28;5104016;28;20031;-57
2022/06/02 07:01:25;;;;;;;1.38;1.23;;;;;;;19.38;48.39;102130.97;5109089;28;20109;-57
2022/06/02 07:04:24;;;;;;;1.30;1.20;;;;;;;19.39;48.54;102138.06;5109401;28;20095;-57
2022/06/02 07:07:08;;;;;;;3.70;1.00;;;;;;;19.38;48.23;102130.13;5096398;28;20067;-53
2022/06/02 07:09:49;;;;;;;2.05;0.88;;;;;;;19.39;48.19;102126.44;5090156;28;20072;-57
2022/06/02 07:15:10;;;;;;;2.60;1.90;;;;;;;19.40;48.45;102134.38;5096016;28;20665;-59
2022/06/02 07:17:48;;;;;;;1.77;1.05;;;;;;;19.40;47.98;102142.44;5113510;28;20024;-58
2022/06/02 07:20:36;;;;;;;1.80;1.23;;;;;;;19.39;48.40;102143.47;5112321;27;20031;-57
2022/06/02 07:23:05;;;;;;;1.17;1.08;;;;;;;19.39;48.18;102148.84;5110284;28;20036;-56
2022/06/02 07:25:40;;;;;;;1.80;1.00;;;;;;;19.39;48.52;102143.47;5106277;27;20027;-56
2022/06/02 07:28:13;;;;;;;1.10;1.00;;;;;;;19.32;48.50;102139.59;5087579;28;20039;-58
2022/06/02 07:30:57;;;;;;;0.80;0.73;;;;;;;19.39;48.40;102151.53;5113974;27;20023;-56
2022/06/02 07:33:40;;;;;;;1.35;0.80;;;;;;;19.39;48.29;102154.25;5106959;28;20125;-58
2022/06/02 07:36:42;;;;;;;1.73;0.80;;;;;;;19.39;48.53;102159.63;5108503;28;20027;-58
2022/06/02 07:39:28;;;;;;;1.10;1.00;;;;;;;19.38;48.25;102157.94;5122738;27;20036;-55
2022/06/02 07:42:05;;;;;;;0.73;0.70;;;;;;;19.39;48.21;102153.41;5105046;28;20032;-52
2022/06/02 07:44:48;;;;;;;2.05;0.73;;;;;;;19.39;48.29;102159.63;5093133;28;20034;-58
2022/06/02 07:47:38;;;;;;;2.45;0.68;;;;;;;19.39;48.63;102158.78;5119701;28;20551;-57
2022/06/02 07:50:34;;;;;;;0.93;0.60;;;;;;;19.38;48.75;102163.34;5110441;28;20035;-57
2022/06/02 07:53:17;;;;;;;1.10;0.85;;;;;;;19.37;48.83;102167.03;5100928;28;20035;-58
2022/06/02 07:56:01;;;;;;;1.58;0.90;;;;;;;19.37;48.54;102164.34;5100928;28;20035;-56
2022/06/02 07:58:35;;;;;;;1.30;0.80;;;;;;;19.39;48.77;102169.56;5105818;28;20021;-54
2022/06/02 08:01:08;;;;;;;3.33;0.90;;;;;;;19.40;48.54;102172.13;5112936;28;20488;-56
2022/06/02 08:03:58;;;;;;;2.05;0.90;;;;;;;19.43;48.74;102176.41;5106138;27;20087;-57
2022/06/02 08:06:29;;;;;;;0.98;0.85;;;;;;;19.44;48.55;102178.09;5124420;27;20024;-57
2022/06/02 08:09:14;;;;;;;0.75;0.70;;;;;;;19.45;48.16;102179.78;5088165;28;20036;-56
2022/06/02 08:11:49;;;;;;;1.92;0.77;;;;;;;19.45;48.18;102180.66;5107480;28;20080;-57
2022/06/02 08:14:33;;;;;;;1.95;1.15;;;;;;;19.46;48.46;102181.53;5086906;28;20084;-56
2022/06/02 08:17:16;;;;;;;1.23;0.80;;;;;;;19.45;48.44;102182.47;5120455;28;20083;-57
2022/06/02 08:19:53;;;;;;;0.80;0.80;;;;;;;19.46;48.44;102189.59;5098442;28;20036;-57
2022/06/02 08:22:27;;;;;;;2.10;0.90;;;;;;;19.46;48.49;102195.84;5098291;28;20023;-57
2022/06/02 08:25:06;;;;;;;0.88;0.75;;;;;;;19.46;48.57;102186.91;5113232;28;20035;-57
2022/06/02 08:27:58;;;;;;;1.45;0.85;;;;;;;19.47;48.35;102192.16;5115553;27;20120;-58
2022/06/02 08:30:44;;;;;;;2.55;0.90;;;;;;;19.49;48.46;102189.31;5128046;27;20028;-56
2022/06/02 08:33:37;;;;;;;2.50;0.90;;;;;;;19.50;48.35;102191.03;5130837;27;20026;-54
2022/06/02 08:36:10;;;;;;;2.03;0.82;;;;;;;19.52;48.07;102204.38;5094944;28;20571;-58
2022/06/02 08:38:47;;;;;;;1.25;0.93;;;;;;;19.53;48.12;102206.91;5120098;28;20023;-58
2022/06/02 08:41:34;;;;;;;2.38;0.82;;;;;;;19.56;47.88;102205.78;5103516;28;20063;-58
2022/06/02 08:44:18;;;;;;;1.00;0.70;;;;;;;19.56;47.71;102214.72;5119237;28;20035;-59
2022/06/02 08:46:58;;;;;;;1.00;0.90;;;;;;;19.58;47.72;102209.19;5121470;28;20428;-59
2022/06/02 08:49:42;;;;;;;1.13;0.65;;;;;;;19.58;47.55;102210.06;5122761;28;20031;-57
2022/06/02 08:52:08;;;;;;;2.53;0.80;;;;;;;19.59;47.51;102216.31;5081748;28;20044;-56
2022/06/02 08:54:54;;;;;;;2.75;1.25;;;;;;;19.60;47.81;102213.47;5113515;28;20027;-59
2022/06/02 08:57:44;;;;;;;1.10;0.80;;;;;;;19.61;47.69;102219.72;5112625;28;20036;-58
2022/06/02 09:00:18;;;;;;;1.88;0.80;;;;;;;19.62;47.73;102214.19;5106446;28;20040;-59
2022/06/02 09:03:21;;;;;;;2.05;1.00;;;;;;;19.64;47.27;102224.84;5117959;28;20461;-57
2022/06/02 09:06:11;;;;;;;0.80;0.80;;;;;;;19.64;47.65;102222.16;5110390;28;20024;-58
2022/06/02 09:09:12;;;;;;;1.20;0.80;;;;;;;19.65;47.44;102216.59;5094061;28;20058;-58
2022/06/02 09:11:40;;;;;;;1.33;0.80;;;;;;;19.64;47.67;102225.69;5109811;28;20019;-56
2022/06/02 09:14:37;;;;;;;1.00;0.77;;;;;;;19.66;47.20;102222.84;5118919;28;20121;-60
2022/06/02 09:17:21;;;;;;;1.02;0.80;;;;;;;19.66;47.33;102225.56;5113927;28;20038;-60
2022/06/02 09:20:14;;;;;;;0.88;0.80;;;;;;;19.63;47.39;102215.91;5126337;27;20024;-59
2022/06/02 09:22:49;;;;;;;1.95;0.90;;;;;;;19.67;47.44;102216.50;5091529;28;20039;-59
2022/06/02 09:25:28;;;;;;;1.48;0.90;;;;;;;19.68;47.30;102223.56;5092886;28;20516;-60
2022/06/02 09:28:21;;;;;;;0.80;0.70;;;;;;;19.68;47.50;102221.72;5110333;28;20036;-59
2022/06/02 09:30:58;;;;;;;1.60;0.68;;;;;;;19.68;47.26;102221.72;5109435;28;20028;-58
2022/06/02 09:34:05;;;;;;;0.93;0.70;;;;;;;19.70;47.19;102222.41;5110975;28;20020;-58
2022/06/02 09:36:45;;;;;;;0.60;0.60;;;;;;;19.71;47.30;102221.44;5116431;28;20023;-57
2022/06/02 09:39:26;;;;;;;1.10;0.80;;;;;;;19.72;47.41;102228.53;5113811;27;20028;-57
2022/06/02 09:42:28;;;;;;;0.82;0.60;;;;;;;19.75;47.47;102226.53;5113566;27;20542;-56
2022/06/02 09:45:19;;;;;;;0.70;0.70;;;;;;;19.78;47.04;102234.38;5110797;27;20061;-58
2022/06/02 09:47:44;;;;;;;0.63;0.63;;;;;;;19.77;47.41;102225.41;5089206;28;20054;-61
2022/06/02 09:50:34;;;;;;;1.75;1.00;;;;;;;19.79;47.20;102226.13;5105194;28;20688;-59
2022/06/02 09:53:21;;;;;;;1.17;0.60;;;;;;;19.80;47.26;102221.59;5107806;27;20020;-55
2022/06/02 09:56:07;;;;;;;0.98;0.75;;;;;;;19.81;47.43;102224.16;5109308;27;20092;-58
2022/06/02 09:59:03;;;;;;;2.88;1.00;;;;;;;19.82;47.36;102223.13;5110971;27;20035;-58
2022/06/02 10:01:34;;;;;;;1.08;0.82;;;;;;;19.84;47.48;102225.72;5109485;28;20028;-58
2022/06/02 10:04:35;;;;;;;1.45;0.80;;;;;;;19.84;47.42;102223.03;5107712;28;20085;-57
2022/06/02 10:07:03;;;;;;;0.82;0.65;;;;;;;19.85;47.40;102220.16;5094414;28;20024;-57
2022/06/02 10:09:56;;;;;;;0.57;0.57;;;;;;;19.86;47.46;102216.47;5112462;27;20028;-55
2022/06/02 10:12:59;;;;;;;1.23;0.85;;;;;;;19.87;47.04;102220.84;5104857;28;20016;-58
2022/06/02 10:15:43;;;;;;;0.60;0.55;;;;;;;19.87;47.46;102218.16;5109666;27;20158;-57
2022/06/02 10:18:34;;;;;;;0.80;0.70;;;;;;;19.89;47.44;102218.03;5107830;28;20028;-56
2022/06/02 10:21:20;;;;;;;0.70;0.68;;;;;;;19.89;47.19;102210.78;5096520;28;20034;-57
2022/06/02 10:24:08;;;;;;;1.85;0.85;;;;;;;19.90;47.31;102219.72;5087854;28;20020;-57
2022/06/02 10:26:48;;;;;;;1.08;0.70;;;;;;;19.91;47.00;102216.03;5088021;28;20048;-58
2022/06/02 10:29:32;;;;;;;0.77;0.70;;;;;;;19.91;47.03;102219.56;5110452;28;20059;-58
2022/06/02 10:32:25;;;;;;;2.13;0.90;;;;;;;19.92;47.29;102212.31;5114491;28;20019;-58
2022/06/02 10:35:15;;;;;;;2.88;0.93;;;;;;;19.93;47.01;102219.44;5107792;27;20032;-58
2022/06/02 10:38:05;;;;;;;1.52;1.25;;;;;;;19.94;47.15;102207.66;5110661;28;20064;-57
2022/06/02 10:41:07;;;;;;;1.08;0.70;;;;;;;19.94;46.84;102197.69;5098794;28;20127;-58
2022/06/02 10:43:51;;;;;;;0.90;0.60;;;;;;;19.96;47.14;102208.34;5107230;28;20110;-58
2022/06/02 10:47:02;;;;;;;0.95;0.70;;;;;;;19.97;47.00;102199.28;5107893;27;20044;-57
2022/06/02 10:49:55;;;;;;;0.70;0.60;;;;;;;19.99;47.38;102205.38;5098344;27;20054;-59
2022/06/02 10:52:54;;;;;;;0.70;0.70;;;;;;;20.00;47.14;102208.91;5108983;28;20050;-58
2022/06/02 10:55:35;;;;;;;0.85;0.60;;;;;;;20.01;47.52;102210.59;5087914;28;20020;-57
2022/06/02 10:58:15;;;;;;;0.60;0.60;;;;;;;20.03;47.58;102195.97;5119290;28;20041;-58
2022/06/02 11:00:53;;;;;;;1.17;0.70;;;;;;;20.04;47.51;102202.22;5087982;28;20676;-58
2022/06/02 11:03:24;;;;;;;1.65;0.70;;;;;;;20.06;47.67;102202.94;5110414;28;20036;-57
2022/06/02 11:06:25;;;;;;;2.33;0.60;;;;;;;20.07;47.31;102199.25;5108644;28;20024;-58
2022/06/02 11:09:12;;;;;;;1.25;0.82;;;;;;;20.08;47.54;102192.84;5087134;28;20024;-58
2022/06/02 11:11:56;;;;;;;0.70;0.70;;;;;;;20.09;47.40;102194.53;5099094;28;20028;-59
2022/06/02 11:14:35;;;;;;;0.77;0.70;;;;;;;20.11;47.32;102193.41;5114747;27;20024;-58
2022/06/02 11:17:18;;;;;;;1.90;0.80;;;;;;;20.11;47.43;102187.16;5115188;28;20032;-57
2022/06/02 11:19:44;;;;;;;1.15;0.60;;;;;;;20.11;47.41;102185.31;5105863;28;20144;-58
2022/06/02 11:22:25;;;;;;;0.82;0.60;;;;;;;20.13;47.33;102188.69;5109463;28;20039;-58
2022/06/02 11:25:18;;;;;;;1.38;0.60;;;;;;;20.16;46.98;102185.72;5084858;28;20134;-58
2022/06/02 11:27:57;;;;;;;0.80;0.60;;;;;;;20.16;46.86;102177.63;5103460;28;20660;-57
2022/06/02 11:30:28;;;;;;;1.33;1.10;;;;;;;20.19;46.95;102179.19;5106918;28;20197;-58
2022/06/02 11:33:00;;;;;;;1.88;0.75;;;;;;;20.20;47.00;102176.31;5110086;28;20027;-58
2022/06/02 11:35:59;;;;;;;1.08;0.70;;;;;;;20.23;47.13;102175.19;5094277;28;20036;-55
2022/06/02 11:38:36;;;;;;;0.90;0.60;;;;;;;20.23;46.95;102176.03;5111370;28;20084;-54
2022/06/02 11:41:26;;;;;;;0.75;0.68;;;;;;;20.25;47.18;102175.88;5108255;28;20052;-58
2022/06/02 11:43:58;;;;;;;0.50;0.50;;;;;;;20.27;47.11;102181.16;5103639;28;20038;-58
2022/06/02 11:46:28;;;;;;;1.05;0.70;;;;;;;20.26;46.81;102179.44;5110251;27;20028;-59
2022/06/02 11:49:17;;;;;;;0.98;0.80;;;;;;;20.27;46.86;102171.22;5107516;28;20023;-59
2022/06/02 11:52:07;;;;;;;0.90;0.68;;;;;;;20.27;47.08;102171.22;5105884;28;20020;-60
2022/06/02 11:54:56;;;;;;;0.93;0.60;;;;;;;20.27;46.73;102165.81;5105755;28;20109;-59
2022/06/02 11:57:44;;;;;;;0.85;0.65;;;;;;;20.28;46.82;102169.34;5107268;28;20038;-60
2022/06/02 12:00:44;;;;;;;0.70;0.70;;;;;;;20.28;46.96;102170.19;5113329;28;20034;-60
2022/06/02 12:03:21;;;;;;;1.75;0.68;;;;;;;20.29;46.76;102161.09;5119565;28;20062;-60
2022/06/02 12:05:52;;;;;;;0.80;0.50;;;;;;;20.28;46.65;102162.09;5112220;28;20031;-60
2022/06/02 12:08:30;;;;;;;1.05;0.68;;;;;;;20.28;46.73;102167.50;5114697;28;20030;-60
2022/06/02 12:11:09;;;;;;;0.77;0.77;;;;;;;20.28;47.05;102158.56;5111919;28;20449;-58
2022/06/02 12:13:52;;;;;;;1.50;0.60;;;;;;;20.27;46.65;102159.56;5091778;28;20066;-60
2022/06/02 12:16:45;;;;;;;1.05;0.68;;;;;;;20.28;46.68;102153.16;5095383;28;20035;-60
2022/06/02 12:19:32;;;;;;;1.15;0.88;;;;;;;20.28;46.52;102147.75;5095040;27;20043;-61
2022/06/02 12:22:19;;;;;;;0.82;0.55;;;;;;;20.27;46.83;102143.34;5119333;28;20020;-60
2022/06/02 12:25:04;;;;;;;0.82;0.57;;;;;;;20.29;46.53;102149.44;5109881;28;20043;-60
2022/06/02 12:28:04;;;;;;;1.73;0.60;;;;;;;20.29;46.71;102157.53;5117953;28;20035;-61
2022/06/02 12:30:48;;;;;;;0.77;0.60;;;;;;;20.29;46.52;102150.28;5108342;28;20125;-60
2022/06/02 12:33:40;;;;;;;0.75;0.60;;;;;;;20.28;47.04;102151.28;5097676;28;20035;-59
2022/06/02 12:36:26;;;;;;;0.98;0.73;;;;;;;20.28;46.89;102151.28;5098351;28;20043;-60
2022/06/02 12:39:02;;;;;;;1.38;0.73;;;;;;;20.27;46.99;102141.50;5069066;28;20047;-60
2022/06/02 12:41:42;;;;;;;0.80;0.80;;;;;;;20.27;46.83;102146.06;5088239;28;20427;-57
2022/06/02 12:44:35;;;;;;;0.52;0.52;;;;;;;20.26;46.98;102139.78;5099641;28;20024;-58
2022/06/02 12:47:12;;;;;;;0.70;0.60;;;;;;;20.25;46.75;102124.56;5115315;28;20054;-57
2022/06/02 12:50:18;;;;;;;0.65;0.60;;;;;;;20.27;46.90;102137.94;5094334;28;20054;-58